sensor_id;sensor_type;location;lat;lon;timestamp;temperature;humidity
68556;HTU21D;55544;51.032;5.866;2024-02-21T00:00:56;10.38;80.43
68556;HTU21D;55544;51.032;5.866;2024-02-21T00:03:21;10.44;80.30
68556;HTU21D;55544;51.032;5.866;2024-02-21T00:05:47;10.36;80.77
68556;HTU21D;55544;51.032;5.866;2024-02-21T00:08:13;10.37;80.86
68556;HTU21D;55544;51.032;5.866;2024-02-21T00:10:39;10.44;80.49
68556;HTU21D;55544;51.032;5.866;2024-02-21T00:13:04;10.37;80.87
68556;HTU21D;55544;51.032;5.866;2024-02-21T00:15:30;10.41;80.65
68556;HTU21D;55544;51.032;5.866;2024-02-21T00:17:56;10.43;81.07
68556;HTU21D;55544;51.032;5.866;2024-02-21T00:20:21;10.42;81.18
68556;HTU21D;55544;51.032;5.866;2024-02-21T00:22:47;10.50;80.62
68556;HTU21D;55544;51.032;5.866;2024-02-21T00:25:13;10.50;80.93
68556;HTU21D;55544;51.032;5.866;2024-02-21T00:27:38;10.49;80.97
68556;HTU21D;55544;51.032;5.866;2024-02-21T00:30:05;10.48;81.06
68556;HTU21D;55544;51.032;5.866;2024-02-21T00:32:31;10.40;81.06
68556;HTU21D;55544;51.032;5.866;2024-02-21T00:34:59;10.43;81.00
68556;HTU21D;55544;51.032;5.866;2024-02-21T00:37:25;10.45;81.15
68556;HTU21D;55544;51.032;5.866;2024-02-21T00:39:50;10.48;80.88
68556;HTU21D;55544;51.032;5.866;2024-02-21T00:42:16;10.43;80.98
68556;HTU21D;55544;51.032;5.866;2024-02-21T00:44:42;10.52;80.33
68556;HTU21D;55544;51.032;5.866;2024-02-21T00:47:07;10.52;80.69
68556;HTU21D;55544;51.032;5.866;2024-02-21T00:49:33;10.45;81.07
68556;HTU21D;55544;51.032;5.866;2024-02-21T00:51:59;10.48;81.12
68556;HTU21D;55544;51.032;5.866;2024-02-21T00:54:24;10.44;80.91
68556;HTU21D;55544;51.032;5.866;2024-02-21T00:56:50;10.50;80.82
68556;HTU21D;55544;51.032;5.866;2024-02-21T00:59:16;10.55;80.17
68556;HTU21D;55544;51.032;5.866;2024-02-21T01:01:42;10.48;80.83
68556;HTU21D;55544;51.032;5.866;2024-02-21T01:04:09;10.50;80.69
68556;HTU21D;55544;51.032;5.866;2024-02-21T01:06:35;10.54;80.78
68556;HTU21D;55544;51.032;5.866;2024-02-21T01:09:00;10.53;80.39
68556;HTU21D;55544;51.032;5.866;2024-02-21T01:11:27;10.51;80.63
68556;HTU21D;55544;51.032;5.866;2024-02-21T01:13:53;10.50;80.72
68556;HTU21D;55544;51.032;5.866;2024-02-21T01:16:20;10.49;80.93
68556;HTU21D;55544;51.032;5.866;2024-02-21T01:18:46;10.54;80.68
68556;HTU21D;55544;51.032;5.866;2024-02-21T01:21:12;10.51;80.34
68556;HTU21D;55544;51.032;5.866;2024-02-21T01:23:37;10.50;80.20
68556;HTU21D;55544;51.032;5.866;2024-02-21T01:26:04;10.52;79.97
68556;HTU21D;55544;51.032;5.866;2024-02-21T01:28:30;10.44;80.17
68556;HTU21D;55544;51.032;5.866;2024-02-21T01:30:56;10.41;80.34
68556;HTU21D;55544;51.032;5.866;2024-02-21T01:33:22;10.42;80.56
68556;HTU21D;55544;51.032;5.866;2024-02-21T01:35:48;10.48;80.52
68556;HTU21D;55544;51.032;5.866;2024-02-21T01:38:15;10.42;80.78
68556;HTU21D;55544;51.032;5.866;2024-02-21T01:40:40;10.40;80.72
68556;HTU21D;55544;51.032;5.866;2024-02-21T01:43:19;10.38;80.57
68556;HTU21D;55544;51.032;5.866;2024-02-21T01:45:53;10.39;80.65
68556;HTU21D;55544;51.032;5.866;2024-02-21T01:48:22;10.41;80.67
68556;HTU21D;55544;51.032;5.866;2024-02-21T01:50:54;10.37;80.98
68556;HTU21D;55544;51.032;5.866;2024-02-21T01:53:27;10.41;80.63
68556;HTU21D;55544;51.032;5.866;2024-02-21T01:55:54;10.34;81.26
68556;HTU21D;55544;51.032;5.866;2024-02-21T01:58:21;10.41;80.82
68556;HTU21D;55544;51.032;5.866;2024-02-21T02:00:48;10.38;81.07
68556;HTU21D;55544;51.032;5.866;2024-02-21T02:03:14;10.35;80.95
68556;HTU21D;55544;51.032;5.866;2024-02-21T02:05:46;10.35;80.91
68556;HTU21D;55544;51.032;5.866;2024-02-21T02:08:14;10.35;81.14
68556;HTU21D;55544;51.032;5.866;2024-02-21T02:10:41;10.40;80.93
68556;HTU21D;55544;51.032;5.866;2024-02-21T02:13:07;10.38;81.30
68556;HTU21D;55544;51.032;5.866;2024-02-21T02:18:05;10.41;80.78
68556;HTU21D;55544;51.032;5.866;2024-02-21T02:20:30;10.39;80.84
68556;HTU21D;55544;51.032;5.866;2024-02-21T02:22:59;10.41;80.83
68556;HTU21D;55544;51.032;5.866;2024-02-21T02:25:26;10.36;80.69
68556;HTU21D;55544;51.032;5.866;2024-02-21T02:27:53;10.36;80.99
68556;HTU21D;55544;51.032;5.866;2024-02-21T02:30:19;10.39;81.03
68556;HTU21D;55544;51.032;5.866;2024-02-21T02:32:45;10.34;80.82
68556;HTU21D;55544;51.032;5.866;2024-02-21T02:35:13;10.39;80.66
68556;HTU21D;55544;51.032;5.866;2024-02-21T02:37:39;10.34;80.91
68556;HTU21D;55544;51.032;5.866;2024-02-21T02:40:06;10.28;81.04
68556;HTU21D;55544;51.032;5.866;2024-02-21T02:42:32;10.33;80.63
68556;HTU21D;55544;51.032;5.866;2024-02-21T02:44:58;10.28;80.80
68556;HTU21D;55544;51.032;5.866;2024-02-21T02:47:24;10.34;80.72
68556;HTU21D;55544;51.032;5.866;2024-02-21T02:49:50;10.29;81.11
68556;HTU21D;55544;51.032;5.866;2024-02-21T02:52:17;10.31;81.07
68556;HTU21D;55544;51.032;5.866;2024-02-21T02:54:44;10.35;80.88
68556;HTU21D;55544;51.032;5.866;2024-02-21T02:57:09;10.26;80.54
68556;HTU21D;55544;51.032;5.866;2024-02-21T02:59:35;10.29;80.58
68556;HTU21D;55544;51.032;5.866;2024-02-21T03:02:01;10.27;80.81
68556;HTU21D;55544;51.032;5.866;2024-02-21T03:04:27;10.28;80.46
68556;HTU21D;55544;51.032;5.866;2024-02-21T03:06:53;10.15;80.91
68556;HTU21D;55544;51.032;5.866;2024-02-21T03:09:18;10.21;80.93
68556;HTU21D;55544;51.032;5.866;2024-02-21T03:11:44;10.24;80.65
68556;HTU21D;55544;51.032;5.866;2024-02-21T03:14:10;10.14;80.99
68556;HTU21D;55544;51.032;5.866;2024-02-21T03:16:36;10.22;80.77
68556;HTU21D;55544;51.032;5.866;2024-02-21T03:19:01;10.19;80.27
68556;HTU21D;55544;51.032;5.866;2024-02-21T03:21:27;10.15;80.77
68556;HTU21D;55544;51.032;5.866;2024-02-21T03:23:53;10.12;80.85
68556;HTU21D;55544;51.032;5.866;2024-02-21T03:26:18;10.27;80.01
68556;HTU21D;55544;51.032;5.866;2024-02-21T03:28:44;10.22;80.45
68556;HTU21D;55544;51.032;5.866;2024-02-21T03:31:13;10.15;80.65
68556;HTU21D;55544;51.032;5.866;2024-02-21T03:33:41;10.23;80.13
68556;HTU21D;55544;51.032;5.866;2024-02-21T03:36:13;10.16;80.31
68556;HTU21D;55544;51.032;5.866;2024-02-21T03:38:39;10.19;80.05
68556;HTU21D;55544;51.032;5.866;2024-02-21T03:41:05;10.21;80.22
68556;HTU21D;55544;51.032;5.866;2024-02-21T03:43:31;10.24;79.93
68556;HTU21D;55544;51.032;5.866;2024-02-21T03:45:57;10.18;79.93
68556;HTU21D;55544;51.032;5.866;2024-02-21T03:48:22;10.21;80.08
68556;HTU21D;55544;51.032;5.866;2024-02-21T03:50:48;10.23;79.91
68556;HTU21D;55544;51.032;5.866;2024-02-21T03:53:14;10.16;80.33
68556;HTU21D;55544;51.032;5.866;2024-02-21T03:55:39;10.20;80.10
68556;HTU21D;55544;51.032;5.866;2024-02-21T03:58:05;10.20;80.30
68556;HTU21D;55544;51.032;5.866;2024-02-21T04:00:31;10.22;80.37
68556;HTU21D;55544;51.032;5.866;2024-02-21T04:02:56;10.20;80.41
68556;HTU21D;55544;51.032;5.866;2024-02-21T04:05:22;10.21;80.51
68556;HTU21D;55544;51.032;5.866;2024-02-21T04:07:48;10.16;80.56
68556;HTU21D;55544;51.032;5.866;2024-02-21T04:10:13;10.19;80.33
68556;HTU21D;55544;51.032;5.866;2024-02-21T04:12:39;10.25;79.94
68556;HTU21D;55544;51.032;5.866;2024-02-21T04:15:05;10.23;79.92
68556;HTU21D;55544;51.032;5.866;2024-02-21T04:17:31;10.22;80.21
68556;HTU21D;55544;51.032;5.866;2024-02-21T04:20:03;10.21;79.88
68556;HTU21D;55544;51.032;5.866;2024-02-21T04:22:31;10.20;79.76
68556;HTU21D;55544;51.032;5.866;2024-02-21T04:24:59;10.15;79.70
68556;HTU21D;55544;51.032;5.866;2024-02-21T04:27:25;10.08;80.05
68556;HTU21D;55544;51.032;5.866;2024-02-21T04:29:52;10.11;79.95
68556;HTU21D;55544;51.032;5.866;2024-02-21T04:32:18;10.07;80.04
68556;HTU21D;55544;51.032;5.866;2024-02-21T04:34:44;10.04;79.88
68556;HTU21D;55544;51.032;5.866;2024-02-21T04:37:10;10.06;80.10
68556;HTU21D;55544;51.032;5.866;2024-02-21T04:39:35;10.07;79.94
68556;HTU21D;55544;51.032;5.866;2024-02-21T04:42:01;10.07;80.18
68556;HTU21D;55544;51.032;5.866;2024-02-21T04:44:27;10.11;79.85
68556;HTU21D;55544;51.032;5.866;2024-02-21T04:46:53;10.11;80.11
68556;HTU21D;55544;51.032;5.866;2024-02-21T04:49:18;10.14;79.58
68556;HTU21D;55544;51.032;5.866;2024-02-21T04:51:44;10.09;79.79
68556;HTU21D;55544;51.032;5.866;2024-02-21T04:54:10;10.07;79.97
68556;HTU21D;55544;51.032;5.866;2024-02-21T04:56:35;10.01;79.71
68556;HTU21D;55544;51.032;5.866;2024-02-21T04:59:01;9.99;80.02
68556;HTU21D;55544;51.032;5.866;2024-02-21T05:01:28;10.00;80.03
68556;HTU21D;55544;51.032;5.866;2024-02-21T05:03:54;9.99;79.94
68556;HTU21D;55544;51.032;5.866;2024-02-21T05:06:19;9.99;80.00
68556;HTU21D;55544;51.032;5.866;2024-02-21T05:08:45;10.04;80.20
68556;HTU21D;55544;51.032;5.866;2024-02-21T05:11:11;9.99;80.24
68556;HTU21D;55544;51.032;5.866;2024-02-21T05:13:36;9.99;80.02
68556;HTU21D;55544;51.032;5.866;2024-02-21T05:16:02;9.98;80.26
68556;HTU21D;55544;51.032;5.866;2024-02-21T05:18:28;9.96;80.62
68556;HTU21D;55544;51.032;5.866;2024-02-21T05:20:54;10.00;80.56
68556;HTU21D;55544;51.032;5.866;2024-02-21T05:23:19;10.04;80.33
68556;HTU21D;55544;51.032;5.866;2024-02-21T05:25:45;10.01;80.30
68556;HTU21D;55544;51.032;5.866;2024-02-21T05:28:11;10.01;79.96
68556;HTU21D;55544;51.032;5.866;2024-02-21T05:30:37;9.99;80.24
68556;HTU21D;55544;51.032;5.866;2024-02-21T05:33:06;10.00;80.15
68556;HTU21D;55544;51.032;5.866;2024-02-21T05:35:32;9.99;80.28
68556;HTU21D;55544;51.032;5.866;2024-02-21T05:37:57;10.00;79.98
68556;HTU21D;55544;51.032;5.866;2024-02-21T05:40:25;10.03;80.20
68556;HTU21D;55544;51.032;5.866;2024-02-21T05:42:51;10.07;80.17
68556;HTU21D;55544;51.032;5.866;2024-02-21T05:45:17;10.01;80.27
68556;HTU21D;55544;51.032;5.866;2024-02-21T05:47:43;10.04;80.17
68556;HTU21D;55544;51.032;5.866;2024-02-21T05:50:10;10.00;80.37
68556;HTU21D;55544;51.032;5.866;2024-02-21T05:52:35;10.05;80.05
68556;HTU21D;55544;51.032;5.866;2024-02-21T05:55:01;10.01;80.60
68556;HTU21D;55544;51.032;5.866;2024-02-21T05:57:27;10.03;80.15
68556;HTU21D;55544;51.032;5.866;2024-02-21T05:59:52;10.03;80.40
68556;HTU21D;55544;51.032;5.866;2024-02-21T06:02:18;10.04;80.37
68556;HTU21D;55544;51.032;5.866;2024-02-21T06:04:44;10.03;80.51
68556;HTU21D;55544;51.032;5.866;2024-02-21T06:07:11;10.06;80.33
68556;HTU21D;55544;51.032;5.866;2024-02-21T06:09:37;10.06;80.13
68556;HTU21D;55544;51.032;5.866;2024-02-21T06:12:03;10.05;80.67
68556;HTU21D;55544;51.032;5.866;2024-02-21T06:14:29;9.95;80.65
68556;HTU21D;55544;51.032;5.866;2024-02-21T06:16:54;9.95;81.23
68556;HTU21D;55544;51.032;5.866;2024-02-21T06:19:20;9.97;81.10
68556;HTU21D;55544;51.032;5.866;2024-02-21T06:21:46;9.96;80.86
68556;HTU21D;55544;51.032;5.866;2024-02-21T06:24:11;9.93;80.86
68556;HTU21D;55544;51.032;5.866;2024-02-21T06:26:39;9.98;80.20
68556;HTU21D;55544;51.032;5.866;2024-02-21T06:29:05;9.84;80.50
68556;HTU21D;55544;51.032;5.866;2024-02-21T06:31:31;9.72;81.45
68556;HTU21D;55544;51.032;5.866;2024-02-21T06:33:57;9.90;80.36
68556;HTU21D;55544;51.032;5.866;2024-02-21T06:36:23;9.90;80.33
68556;HTU21D;55544;51.032;5.866;2024-02-21T06:38:49;9.88;80.07
68556;HTU21D;55544;51.032;5.866;2024-02-21T06:41:16;9.84;80.26
68556;HTU21D;55544;51.032;5.866;2024-02-21T06:43:42;9.86;79.94
68556;HTU21D;55544;51.032;5.866;2024-02-21T06:46:08;9.78;80.15
68556;HTU21D;55544;51.032;5.866;2024-02-21T06:48:33;9.79;80.27
68556;HTU21D;55544;51.032;5.866;2024-02-21T06:50:59;9.82;80.15
68556;HTU21D;55544;51.032;5.866;2024-02-21T06:53:25;9.77;80.33
68556;HTU21D;55544;51.032;5.866;2024-02-21T06:55:50;9.77;80.07
68556;HTU21D;55544;51.032;5.866;2024-02-21T06:58:16;9.78;79.85
68556;HTU21D;55544;51.032;5.866;2024-02-21T07:00:42;9.79;79.70
68556;HTU21D;55544;51.032;5.866;2024-02-21T07:03:08;9.76;79.83
68556;HTU21D;55544;51.032;5.866;2024-02-21T07:05:34;9.77;79.64
68556;HTU21D;55544;51.032;5.866;2024-02-21T07:08:00;9.70;79.80
68556;HTU21D;55544;51.032;5.866;2024-02-21T07:10:25;9.77;79.53
68556;HTU21D;55544;51.032;5.866;2024-02-21T07:12:53;9.75;79.97
68556;HTU21D;55544;51.032;5.866;2024-02-21T07:15:18;9.78;79.85
68556;HTU21D;55544;51.032;5.866;2024-02-21T07:17:44;9.83;79.62
68556;HTU21D;55544;51.032;5.866;2024-02-21T07:20:10;9.77;79.93
68556;HTU21D;55544;51.032;5.866;2024-02-21T07:22:36;9.74;79.95
68556;HTU21D;55544;51.032;5.866;2024-02-21T07:25:02;9.76;79.95
68556;HTU21D;55544;51.032;5.866;2024-02-21T07:27:27;9.75;80.40
68556;HTU21D;55544;51.032;5.866;2024-02-21T07:29:56;9.75;80.28
68556;HTU21D;55544;51.032;5.866;2024-02-21T07:32:22;9.70;80.79
68556;HTU21D;55544;51.032;5.866;2024-02-21T07:34:48;9.70;81.08
68556;HTU21D;55544;51.032;5.866;2024-02-21T07:37:14;9.79;80.25
68556;HTU21D;55544;51.032;5.866;2024-02-21T07:39:41;9.64;80.65
68556;HTU21D;55544;51.032;5.866;2024-02-21T07:42:06;9.64;81.04
68556;HTU21D;55544;51.032;5.866;2024-02-21T07:44:32;9.66;80.76
68556;HTU21D;55544;51.032;5.866;2024-02-21T07:46:58;9.75;80.75
68556;HTU21D;55544;51.032;5.866;2024-02-21T07:49:24;9.79;80.35
68556;HTU21D;55544;51.032;5.866;2024-02-21T07:51:50;9.76;80.29
68556;HTU21D;55544;51.032;5.866;2024-02-21T07:54:17;9.81;80.14
68556;HTU21D;55544;51.032;5.866;2024-02-21T07:56:43;9.85;79.98
68556;HTU21D;55544;51.032;5.866;2024-02-21T07:59:09;9.85;80.29
68556;HTU21D;55544;51.032;5.866;2024-02-21T08:01:34;9.84;80.34
68556;HTU21D;55544;51.032;5.866;2024-02-21T08:04:00;9.83;80.65
68556;HTU21D;55544;51.032;5.866;2024-02-21T08:06:26;9.80;80.88
68556;HTU21D;55544;51.032;5.866;2024-02-21T08:08:51;9.90;80.58
68556;HTU21D;55544;51.032;5.866;2024-02-21T08:11:18;9.83;80.04
68556;HTU21D;55544;51.032;5.866;2024-02-21T08:13:44;9.90;80.06
68556;HTU21D;55544;51.032;5.866;2024-02-21T08:16:09;9.84;80.05
68556;HTU21D;55544;51.032;5.866;2024-02-21T08:18:35;9.84;80.02
68556;HTU21D;55544;51.032;5.866;2024-02-21T08:21:03;9.82;79.81
68556;HTU21D;55544;51.032;5.866;2024-02-21T08:23:29;9.82;79.70
68556;HTU21D;55544;51.032;5.866;2024-02-21T08:25:55;9.88;79.66
68556;HTU21D;55544;51.032;5.866;2024-02-21T08:28:20;9.97;78.80
68556;HTU21D;55544;51.032;5.866;2024-02-21T08:30:46;9.88;78.59
68556;HTU21D;55544;51.032;5.866;2024-02-21T08:33:15;9.95;78.40
68556;HTU21D;55544;51.032;5.866;2024-02-21T08:35:42;9.91;78.72
68556;HTU21D;55544;51.032;5.866;2024-02-21T08:38:08;9.92;78.93
68556;HTU21D;55544;51.032;5.866;2024-02-21T08:40:33;9.94;78.77
68556;HTU21D;55544;51.032;5.866;2024-02-21T08:43:01;9.97;78.17
68556;HTU21D;55544;51.032;5.866;2024-02-21T08:45:26;9.93;78.05
68556;HTU21D;55544;51.032;5.866;2024-02-21T08:47:52;9.93;78.44
68556;HTU21D;55544;51.032;5.866;2024-02-21T08:50:18;9.96;78.30
68556;HTU21D;55544;51.032;5.866;2024-02-21T08:52:43;9.97;77.99
68556;HTU21D;55544;51.032;5.866;2024-02-21T08:55:09;10.00;77.43
68556;HTU21D;55544;51.032;5.866;2024-02-21T08:57:35;9.98;77.50
68556;HTU21D;55544;51.032;5.866;2024-02-21T09:00:05;10.09;77.44
68556;HTU21D;55544;51.032;5.866;2024-02-21T09:02:37;10.07;77.37
68556;HTU21D;55544;51.032;5.866;2024-02-21T09:05:03;10.15;77.64
68556;HTU21D;55544;51.032;5.866;2024-02-21T09:07:31;10.27;76.59
68556;HTU21D;55544;51.032;5.866;2024-02-21T09:09:56;10.18;75.56
68556;HTU21D;55544;51.032;5.866;2024-02-21T09:12:22;10.13;76.86
68556;HTU21D;55544;51.032;5.866;2024-02-21T09:14:48;10.20;76.12
68556;HTU21D;55544;51.032;5.866;2024-02-21T09:17:16;10.08;76.36
68556;HTU21D;55544;51.032;5.866;2024-02-21T09:19:47;10.07;76.24
68556;HTU21D;55544;51.032;5.866;2024-02-21T09:22:13;10.19;76.70
68556;HTU21D;55544;51.032;5.866;2024-02-21T09:24:39;10.29;76.37
68556;HTU21D;55544;51.032;5.866;2024-02-21T09:27:05;10.41;75.58
68556;HTU21D;55544;51.032;5.866;2024-02-21T09:29:32;10.38;75.73
68556;HTU21D;55544;51.032;5.866;2024-02-21T09:31:59;10.39;75.44
68556;HTU21D;55544;51.032;5.866;2024-02-21T09:34:25;10.51;74.82
68556;HTU21D;55544;51.032;5.866;2024-02-21T09:36:50;10.50;74.62
68556;HTU21D;55544;51.032;5.866;2024-02-21T09:39:16;10.55;74.87
68556;HTU21D;55544;51.032;5.866;2024-02-21T09:41:50;10.60;74.12
68556;HTU21D;55544;51.032;5.866;2024-02-21T09:44:19;10.66;73.63
68556;HTU21D;55544;51.032;5.866;2024-02-21T09:46:55;10.63;74.28
68556;HTU21D;55544;51.032;5.866;2024-02-21T09:51:56;10.63;74.15
68556;HTU21D;55544;51.032;5.866;2024-02-21T09:54:23;10.70;73.86
68556;HTU21D;55544;51.032;5.866;2024-02-21T09:56:49;10.65;73.61
68556;HTU21D;55544;51.032;5.866;2024-02-21T09:59:16;10.60;74.44
68556;HTU21D;55544;51.032;5.866;2024-02-21T10:01:43;10.70;73.88
68556;HTU21D;55544;51.032;5.866;2024-02-21T10:04:10;10.54;73.88
68556;HTU21D;55544;51.032;5.866;2024-02-21T10:06:35;10.68;74.24
68556;HTU21D;55544;51.032;5.866;2024-02-21T10:09:03;10.74;73.57
68556;HTU21D;55544;51.032;5.866;2024-02-21T10:11:29;10.78;74.12
68556;HTU21D;55544;51.032;5.866;2024-02-21T10:14:06;10.81;73.36
68556;HTU21D;55544;51.032;5.866;2024-02-21T10:16:32;10.90;72.84
68556;HTU21D;55544;51.032;5.866;2024-02-21T10:18:59;10.80;74.02
68556;HTU21D;55544;51.032;5.866;2024-02-21T10:21:25;10.79;73.59
68556;HTU21D;55544;51.032;5.866;2024-02-21T10:23:52;10.78;73.86
68556;HTU21D;55544;51.032;5.866;2024-02-21T10:26:19;10.86;74.79
68556;HTU21D;55544;51.032;5.866;2024-02-21T10:28:45;10.95;73.52
68556;HTU21D;55544;51.032;5.866;2024-02-21T10:31:22;11.10;73.29
68556;HTU21D;55544;51.032;5.866;2024-02-21T10:33:59;11.05;73.79
68556;HTU21D;55544;51.032;5.866;2024-02-21T10:36:29;11.10;73.65
68556;HTU21D;55544;51.032;5.866;2024-02-21T10:38:55;11.20;73.75
68556;HTU21D;55544;51.032;5.866;2024-02-21T10:41:22;11.15;73.65
68556;HTU21D;55544;51.032;5.866;2024-02-21T10:43:53;11.26;73.10
68556;HTU21D;55544;51.032;5.866;2024-02-21T10:46:21;11.17;72.93
68556;HTU21D;55544;51.032;5.866;2024-02-21T10:49:01;11.22;73.41
68556;HTU21D;55544;51.032;5.866;2024-02-21T10:51:33;11.24;73.70
68556;HTU21D;55544;51.032;5.866;2024-02-21T10:56:45;11.29;73.28
68556;HTU21D;55544;51.032;5.866;2024-02-21T10:59:13;11.32;73.62
68556;HTU21D;55544;51.032;5.866;2024-02-21T11:01:39;11.33;73.23
68556;HTU21D;55544;51.032;5.866;2024-02-21T11:04:10;11.37;73.23
68556;HTU21D;55544;51.032;5.866;2024-02-21T11:06:39;11.42;73.85
68556;HTU21D;55544;51.032;5.866;2024-02-21T11:09:08;11.46;73.23
68556;HTU21D;55544;51.032;5.866;2024-02-21T11:11:36;11.59;73.08
68556;HTU21D;55544;51.032;5.866;2024-02-21T11:14:20;11.66;71.74
68556;HTU21D;55544;51.032;5.866;2024-02-21T11:16:47;11.61;72.83
68556;HTU21D;55544;51.032;5.866;2024-02-21T11:19:21;11.76;72.16
68556;HTU21D;55544;51.032;5.866;2024-02-21T11:21:47;11.76;71.69
68556;HTU21D;55544;51.032;5.866;2024-02-21T11:24:13;11.72;70.91
68556;HTU21D;55544;51.032;5.866;2024-02-21T11:26:40;11.79;72.51
68556;HTU21D;55544;51.032;5.866;2024-02-21T11:29:09;11.93;71.96
68556;HTU21D;55544;51.032;5.866;2024-02-21T11:31:40;11.93;71.21
68556;HTU21D;55544;51.032;5.866;2024-02-21T11:34:13;11.84;70.90
68556;HTU21D;55544;51.032;5.866;2024-02-21T11:36:52;11.90;71.32
68556;HTU21D;55544;51.032;5.866;2024-02-21T11:41:44;11.85;71.74
68556;HTU21D;55544;51.032;5.866;2024-02-21T11:44:10;12.04;71.17
68556;HTU21D;55544;51.032;5.866;2024-02-21T11:46:36;12.10;70.97
68556;HTU21D;55544;51.032;5.866;2024-02-21T11:49:01;12.16;70.67
68556;HTU21D;55544;51.032;5.866;2024-02-21T11:51:29;12.18;70.39
68556;HTU21D;55544;51.032;5.866;2024-02-21T11:53:54;12.26;69.80
68556;HTU21D;55544;51.032;5.866;2024-02-21T11:56:20;12.18;69.87
68556;HTU21D;55544;51.032;5.866;2024-02-21T11:58:48;12.31;70.76
68556;HTU21D;55544;51.032;5.866;2024-02-21T12:01:14;12.26;70.30
68556;HTU21D;55544;51.032;5.866;2024-02-21T12:03:41;12.45;70.16
68556;HTU21D;55544;51.032;5.866;2024-02-21T12:06:07;12.49;69.62
68556;HTU21D;55544;51.032;5.866;2024-02-21T12:08:45;12.57;69.38
68556;HTU21D;55544;51.032;5.866;2024-02-21T12:11:23;12.52;69.09
68556;HTU21D;55544;51.032;5.866;2024-02-21T12:14:04;12.55;68.98
68556;HTU21D;55544;51.032;5.866;2024-02-21T12:16:33;12.44;69.73
68556;HTU21D;55544;51.032;5.866;2024-02-21T12:19:00;12.76;67.28
68556;HTU21D;55544;51.032;5.866;2024-02-21T12:21:30;12.75;68.17
68556;HTU21D;55544;51.032;5.866;2024-02-21T12:23:58;12.81;68.37
68556;HTU21D;55544;51.032;5.866;2024-02-21T12:26:25;13.03;68.05
68556;HTU21D;55544;51.032;5.866;2024-02-21T12:28:53;13.12;66.85
68556;HTU21D;55544;51.032;5.866;2024-02-21T12:31:19;13.07;67.71
68556;HTU21D;55544;51.032;5.866;2024-02-21T12:33:44;13.15;65.66
68556;HTU21D;55544;51.032;5.866;2024-02-21T12:36:10;12.97;66.04
68556;HTU21D;55544;51.032;5.866;2024-02-21T12:38:36;12.99;66.27
68556;HTU21D;55544;51.032;5.866;2024-02-21T12:41:02;12.99;66.53
68556;HTU21D;55544;51.032;5.866;2024-02-21T12:43:28;13.02;65.89
68556;HTU21D;55544;51.032;5.866;2024-02-21T12:45:54;13.02;66.40
68556;HTU21D;55544;51.032;5.866;2024-02-21T12:48:20;13.20;66.01
68556;HTU21D;55544;51.032;5.866;2024-02-21T12:50:49;13.00;66.20
68556;HTU21D;55544;51.032;5.866;2024-02-21T12:53:19;12.91;65.56
68556;HTU21D;55544;51.032;5.866;2024-02-21T12:55:48;12.87;66.52
68556;HTU21D;55544;51.032;5.866;2024-02-21T12:58:14;12.87;65.87
68556;HTU21D;55544;51.032;5.866;2024-02-21T13:00:40;12.82;66.35
68556;HTU21D;55544;51.032;5.866;2024-02-21T13:03:07;12.66;67.12
68556;HTU21D;55544;51.032;5.866;2024-02-21T13:05:32;12.65;66.85
68556;HTU21D;55544;51.032;5.866;2024-02-21T13:07:58;12.66;66.62
68556;HTU21D;55544;51.032;5.866;2024-02-21T13:10:24;12.67;66.19
68556;HTU21D;55544;51.032;5.866;2024-02-21T13:12:50;12.62;66.75
68556;HTU21D;55544;51.032;5.866;2024-02-21T13:15:17;12.60;67.23
68556;HTU21D;55544;51.032;5.866;2024-02-21T13:17:46;12.48;68.04
68556;HTU21D;55544;51.032;5.866;2024-02-21T13:20:12;12.45;67.46
68556;HTU21D;55544;51.032;5.866;2024-02-21T13:22:38;12.58;67.39
68556;HTU21D;55544;51.032;5.866;2024-02-21T13:25:05;12.55;67.49
68556;HTU21D;55544;51.032;5.866;2024-02-21T13:27:33;12.65;66.64
68556;HTU21D;55544;51.032;5.866;2024-02-21T13:29:59;12.50;67.24
68556;HTU21D;55544;51.032;5.866;2024-02-21T13:32:27;12.48;67.55
68556;HTU21D;55544;51.032;5.866;2024-02-21T13:34:53;12.48;67.78
68556;HTU21D;55544;51.032;5.866;2024-02-21T13:37:18;12.48;68.14
68556;HTU21D;55544;51.032;5.866;2024-02-21T13:39:44;12.41;68.13
68556;HTU21D;55544;51.032;5.866;2024-02-21T13:42:10;12.44;67.91
68556;HTU21D;55544;51.032;5.866;2024-02-21T13:44:36;12.43;68.21
68556;HTU21D;55544;51.032;5.866;2024-02-21T13:47:02;12.49;68.38
68556;HTU21D;55544;51.032;5.866;2024-02-21T13:49:28;12.43;68.77
68556;HTU21D;55544;51.032;5.866;2024-02-21T13:51:55;12.46;68.68
68556;HTU21D;55544;51.032;5.866;2024-02-21T13:54:21;12.56;67.81
68556;HTU21D;55544;51.032;5.866;2024-02-21T13:56:47;12.57;67.22
68556;HTU21D;55544;51.032;5.866;2024-02-21T13:59:13;12.57;67.90
68556;HTU21D;55544;51.032;5.866;2024-02-21T14:01:39;12.59;67.01
68556;HTU21D;55544;51.032;5.866;2024-02-21T14:04:04;12.58;67.01
68556;HTU21D;55544;51.032;5.866;2024-02-21T14:06:30;12.51;67.00
68556;HTU21D;55544;51.032;5.866;2024-02-21T14:08:56;12.62;67.14
68556;HTU21D;55544;51.032;5.866;2024-02-21T14:11:22;12.56;67.42
68556;HTU21D;55544;51.032;5.866;2024-02-21T14:13:48;12.62;67.52
68556;HTU21D;55544;51.032;5.866;2024-02-21T14:16:14;12.60;66.80
68556;HTU21D;55544;51.032;5.866;2024-02-21T14:18:40;12.58;66.61
68556;HTU21D;55544;51.032;5.866;2024-02-21T14:21:10;12.63;66.17
68556;HTU21D;55544;51.032;5.866;2024-02-21T14:23:39;12.51;67.10
68556;HTU21D;55544;51.032;5.866;2024-02-21T14:26:05;12.49;66.69
68556;HTU21D;55544;51.032;5.866;2024-02-21T14:28:32;12.51;66.24
68556;HTU21D;55544;51.032;5.866;2024-02-21T14:30:59;12.48;66.74
68556;HTU21D;55544;51.032;5.866;2024-02-21T14:33:26;12.46;66.69
68556;HTU21D;55544;51.032;5.866;2024-02-21T14:35:53;12.47;66.88
68556;HTU21D;55544;51.032;5.866;2024-02-21T14:38:19;12.58;65.56
68556;HTU21D;55544;51.032;5.866;2024-02-21T14:40:45;12.49;65.76
68556;HTU21D;55544;51.032;5.866;2024-02-21T14:43:11;12.46;65.84
68556;HTU21D;55544;51.032;5.866;2024-02-21T14:45:37;12.48;65.53
68556;HTU21D;55544;51.032;5.866;2024-02-21T14:48:06;12.53;65.50
68556;HTU21D;55544;51.032;5.866;2024-02-21T14:50:32;12.45;64.89
68556;HTU21D;55544;51.032;5.866;2024-02-21T14:52:58;12.41;64.32
68556;HTU21D;55544;51.032;5.866;2024-02-21T14:55:24;12.55;64.29
68556;HTU21D;55544;51.032;5.866;2024-02-21T14:57:50;12.53;64.53
68556;HTU21D;55544;51.032;5.866;2024-02-21T15:00:16;12.44;65.32
68556;HTU21D;55544;51.032;5.866;2024-02-21T15:02:42;12.37;65.74
68556;HTU21D;55544;51.032;5.866;2024-02-21T15:05:09;12.40;65.68
68556;HTU21D;55544;51.032;5.866;2024-02-21T15:07:34;12.40;65.78
68556;HTU21D;55544;51.032;5.866;2024-02-21T15:10:01;12.34;66.45
68556;HTU21D;55544;51.032;5.866;2024-02-21T15:12:28;12.33;66.24
68556;HTU21D;55544;51.032;5.866;2024-02-21T15:14:53;12.28;67.30
68556;HTU21D;55544;51.032;5.866;2024-02-21T15:17:19;12.21;67.98
68556;HTU21D;55544;51.032;5.866;2024-02-21T15:19:45;12.21;68.36
68556;HTU21D;55544;51.032;5.866;2024-02-21T15:22:13;12.13;68.95
68556;HTU21D;55544;51.032;5.866;2024-02-21T15:24:40;12.06;68.42
68556;HTU21D;55544;51.032;5.866;2024-02-21T15:27:07;11.93;68.64